createdAt,value
2023-02-12T00:00:13.202Z,51.69
2023-02-12T00:01:13.201Z,55.48
2023-02-12T00:02:13.195Z,52.98
2023-02-12T00:03:13.257Z,54.34
2023-02-12T00:04:13.173Z,49.46
2023-02-12T00:05:13.173Z,47.42
2023-02-12T00:06:15.820Z,47.42
2023-02-12T00:07:14.151Z,50.89
2023-02-12T00:08:13.159Z,54.53
2023-02-12T00:09:13.171Z,49.46
2023-02-12T00:10:13.159Z,51.58
2023-02-12T00:11:13.151Z,53.97
2023-02-12T00:12:13.103Z,53.10
2023-02-12T00:13:13.121Z,53.89
2023-02-12T00:14:13.105Z,50.57
2023-02-12T00:15:13.101Z,53.52
2023-02-12T00:16:13.165Z,51.38
2023-02-12T00:17:13.087Z,53.24
2023-02-12T00:18:13.090Z,51.62
2023-02-12T00:19:13.070Z,51.73
2023-02-12T00:20:13.085Z,54.23
2023-02-12T00:21:13.098Z,52.13
2023-02-12T00:22:13.053Z,46.33
2023-02-12T00:23:13.041Z,47.99
2023-02-12T00:24:13.038Z,52.32
2023-02-12T00:25:13.030Z,52.36
2023-02-12T00:26:13.036Z,52.84
2023-02-12T00:27:13.998Z,55.53
2023-02-12T00:28:13.020Z,50.08
2023-02-12T00:29:13.002Z,54.79
2023-02-12T00:30:12.990Z,55.78
2023-02-12T00:31:13.113Z,50.28
2023-02-12T00:32:12.986Z,51.08
2023-02-12T00:33:12.978Z,55.58
2023-02-12T00:34:12.964Z,51.62
2023-02-12T00:35:12.961Z,51.29
2023-02-12T00:36:12.961Z,50.93
2023-02-12T00:37:12.981Z,48.75
2023-02-12T00:38:12.945Z,54.46
2023-02-12T00:39:12.942Z,50.44
2023-02-12T00:40:12.928Z,52.78
2023-02-12T00:41:12.932Z,55.04
2023-02-12T00:42:12.930Z,56.71
2023-02-12T00:43:12.905Z,50.80
2023-02-12T00:44:12.905Z,54.33
2023-02-12T00:45:12.893Z,50.76
2023-02-12T00:46:12.933Z,47.12
2023-02-12T00:47:12.886Z,47.88
2023-02-12T00:48:12.897Z,53.93
2023-02-12T00:49:12.873Z,50.64
2023-02-12T00:50:12.872Z,53.62
2023-02-12T00:51:12.865Z,48.04
2023-02-12T00:52:12.840Z,52.32
2023-02-12T00:53:12.849Z,52.46
2023-02-12T00:54:12.816Z,53.84
2023-02-12T00:55:12.842Z,50.11
2023-02-12T00:56:12.827Z,51.51
2023-02-12T00:57:12.817Z,51.07
2023-02-12T00:58:12.855Z,49.82
2023-02-12T00:59:12.801Z,51.55
2023-02-12T01:00:12.799Z,50.00
2023-02-12T01:01:12.839Z,50.26
2023-02-12T01:02:12.792Z,52.48
2023-02-12T01:03:12.794Z,51.11
2023-02-12T01:04:12.770Z,48.59
2023-02-12T01:05:12.816Z,50.18
2023-02-12T01:06:13.748Z,52.53
2023-02-12T01:07:12.749Z,49.61
2023-02-12T01:08:12.741Z,50.87
2023-02-12T01:09:12.747Z,51.92
2023-02-12T01:10:12.751Z,50.78
2023-02-12T01:11:12.734Z,51.67
2023-02-12T01:12:12.713Z,53.58
2023-02-12T01:13:12.708Z,52.76
2023-02-12T01:14:12.700Z,50.07
2023-02-12T01:15:12.702Z,52.13
2023-02-12T01:16:12.841Z,48.83
2023-02-12T01:17:12.690Z,52.44
2023-02-12T01:18:12.881Z,53.86
2023-02-12T01:19:13.336Z,50.82
2023-02-12T01:20:12.664Z,50.75
2023-02-12T01:21:12.668Z,50.91
2023-02-12T01:22:12.649Z,46.64
2023-02-12T01:23:12.672Z,47.35
2023-02-12T01:24:12.630Z,47.84
2023-02-12T01:25:12.628Z,49.29
2023-02-12T01:26:13.636Z,49.84
2023-02-12T01:27:12.641Z,53.73
2023-02-12T01:28:12.679Z,47.24
2023-02-12T01:29:12.596Z,48.21
2023-02-12T01:30:12.597Z,49.20
2023-02-12T01:31:12.765Z,49.44
2023-02-12T01:32:12.674Z,48.21
2023-02-12T01:33:12.577Z,47.82
2023-02-12T01:34:12.561Z,46.89
2023-02-12T01:35:12.567Z,46.67
2023-02-12T01:36:12.560Z,49.22
2023-02-12T01:37:12.563Z,49.38
2023-02-12T01:38:12.543Z,52.25
2023-02-12T01:39:12.542Z,48.78
2023-02-12T01:40:12.529Z,52.42
2023-02-12T01:41:12.540Z,47.90
2023-02-12T01:42:12.536Z,49.81
2023-02-12T01:43:12.526Z,48.87
2023-02-12T01:44:12.528Z,47.05
2023-02-12T01:45:12.501Z,53.75
2023-02-12T01:46:12.537Z,52.48
2023-02-12T01:47:12.508Z,48.72
2023-02-12T01:48:12.500Z,53.80
2023-02-12T01:49:12.491Z,50.13
2023-02-12T01:50:12.474Z,53.18
2023-02-12T01:51:12.473Z,47.24
2023-02-12T01:52:12.465Z,48.30
2023-02-12T01:53:12.454Z,51.34
2023-02-12T01:54:12.448Z,49.33
2023-02-12T01:55:12.440Z,52.65
2023-02-12T01:56:12.434Z,49.02
2023-02-12T01:57:12.427Z,49.91
2023-02-12T01:58:12.405Z,47.10
2023-02-12T01:59:12.406Z,53.66
2023-02-12T02:00:12.393Z,47.59
2023-02-12T02:01:12.405Z,47.63
2023-02-12T02:02:12.405Z,51.78
2023-02-12T02:03:12.412Z,53.88
2023-02-12T02:04:12.378Z,51.13
2023-02-12T02:05:12.378Z,50.67
2023-02-12T02:06:12.378Z,49.14
2023-02-12T02:07:12.370Z,49.91
2023-02-12T02:08:12.362Z,48.80
2023-02-12T02:09:12.350Z,51.69
2023-02-12T02:10:12.330Z,46.77
2023-02-12T02:11:12.316Z,48.91
2023-02-12T02:12:12.313Z,51.28
2023-02-12T02:13:12.324Z,49.48
2023-02-12T02:14:12.305Z,47.58
2023-02-12T02:15:12.288Z,48.57
2023-02-12T02:16:12.323Z,46.42
2023-02-12T02:17:12.281Z,53.23
2023-02-12T02:18:12.311Z,54.86
2023-02-12T02:19:12.269Z,49.87
2023-02-12T02:20:12.267Z,51.43
2023-02-12T02:21:12.261Z,51.21
2023-02-12T02:22:12.256Z,48.96
2023-02-12T02:23:12.274Z,47.02
2023-02-12T02:24:12.228Z,51.62
2023-02-12T02:25:12.224Z,51.86
2023-02-12T02:26:12.212Z,49.97
2023-02-12T02:27:12.244Z,49.77
2023-02-12T02:28:12.211Z,51.11
2023-02-12T02:29:12.231Z,50.95
2023-02-12T02:30:12.209Z,51.17
2023-02-12T02:31:12.373Z,52.08
2023-02-12T02:32:12.228Z,50.45
2023-02-12T02:33:12.174Z,47.56
2023-02-12T02:34:12.171Z,53.04
2023-02-12T02:35:12.172Z,51.07
2023-02-12T02:36:12.161Z,48.08
2023-02-12T02:37:12.176Z,47.24
2023-02-12T02:38:12.137Z,48.74
2023-02-12T02:39:12.132Z,50.59
2023-02-12T02:40:12.152Z,50.69
2023-02-12T02:41:12.115Z,50.79
2023-02-12T02:42:12.102Z,46.18
2023-02-12T02:43:12.103Z,46.84
2023-02-12T02:44:12.094Z,50.24
2023-02-12T02:45:12.083Z,50.21
2023-02-12T02:46:12.078Z,49.15
2023-02-12T02:47:12.086Z,47.24
2023-02-12T02:48:12.062Z,50.26
2023-02-12T02:49:12.051Z,47.82
2023-02-12T02:50:12.046Z,47.15
2023-02-12T02:51:12.042Z,46.30
2023-02-12T02:52:12.055Z,46.53
2023-02-12T02:53:12.043Z,48.11
2023-02-12T02:54:12.023Z,48.46
2023-02-12T02:55:12.023Z,49.94
2023-02-12T02:56:12.014Z,50.76
2023-02-12T02:57:12.015Z,46.96
2023-02-12T02:58:11.998Z,49.18
2023-02-12T02:59:12.003Z,49.81
2023-02-12T03:00:11.974Z,50.31
2023-02-12T03:01:12.007Z,47.23
2023-02-12T03:02:11.966Z,50.84
2023-02-12T03:03:11.996Z,47.39
2023-02-12T03:04:11.946Z,49.02
2023-02-12T03:05:11.950Z,46.70
2023-02-12T03:06:11.980Z,46.70
2023-02-12T03:07:11.931Z,50.68
2023-02-12T03:08:11.927Z,49.28
2023-02-12T03:09:11.934Z,48.16
2023-02-12T03:10:11.906Z,49.32
2023-02-12T03:11:11.914Z,47.84
2023-02-12T03:12:11.893Z,48.94
2023-02-12T03:13:11.881Z,48.87
2023-02-12T03:14:11.894Z,47.89
2023-02-12T03:15:11.878Z,47.09
2023-02-12T03:16:11.882Z,49.42
2023-02-12T03:17:12.866Z,48.14
2023-02-12T03:18:11.849Z,48.98
2023-02-12T03:19:11.881Z,46.95
2023-02-12T03:20:11.850Z,50.26
2023-02-12T03:21:11.834Z,48.91
2023-02-12T03:22:11.819Z,46.69
2023-02-12T03:23:11.828Z,46.39
2023-02-12T03:24:11.819Z,49.83
2023-02-12T03:25:11.818Z,51.59
2023-02-12T03:26:11.795Z,47.30
2023-02-12T03:27:11.809Z,49.05
2023-02-12T03:28:11.847Z,46.92
2023-02-12T03:29:11.812Z,51.78
2023-02-12T03:30:11.794Z,49.97
2023-02-12T03:31:11.899Z,48.01
2023-02-12T03:32:11.771Z,48.68
2023-02-12T03:33:11.766Z,47.45
2023-02-12T03:34:11.751Z,47.91
2023-02-12T03:35:11.769Z,48.86
2023-02-12T03:36:11.736Z,46.30
2023-02-12T03:37:11.736Z,46.33
2023-02-12T03:38:11.726Z,48.72
2023-02-12T03:39:11.728Z,47.53
2023-02-12T03:40:11.717Z,46.38
2023-02-12T03:41:11.725Z,47.85
2023-02-12T03:42:11.703Z,52.10
2023-02-12T03:43:11.697Z,48.70
2023-02-12T03:44:11.685Z,47.01
2023-02-12T03:45:11.686Z,47.13
2023-02-12T03:46:11.703Z,50.17
2023-02-12T03:47:11.695Z,49.85
2023-02-12T03:48:11.658Z,50.04
2023-02-12T03:49:11.651Z,48.02
2023-02-12T03:50:11.651Z,46.15
2023-02-12T03:51:11.633Z,46.71
2023-02-12T03:52:11.654Z,47.51
2023-02-12T03:53:11.630Z,47.52
2023-02-12T03:54:11.618Z,50.72
2023-02-12T03:55:11.607Z,48.91
2023-02-12T03:56:11.602Z,49.82
2023-02-12T03:57:11.624Z,48.90
2023-02-12T03:58:11.587Z,49.18
2023-02-12T03:59:11.579Z,52.64
2023-02-12T04:00:11.574Z,47.24
2023-02-12T04:01:11.717Z,51.71
2023-02-12T04:02:11.711Z,52.02
2023-02-12T04:03:11.552Z,49.65
2023-02-12T04:04:11.589Z,46.38
2023-02-12T04:05:11.529Z,49.41
2023-02-12T04:06:11.542Z,51.92
2023-02-12T04:07:11.533Z,51.86
2023-02-12T04:08:11.512Z,51.10
2023-02-12T04:09:11.519Z,51.23
2023-02-12T04:10:11.499Z,49.50
2023-02-12T04:11:11.501Z,49.10
2023-02-12T04:12:11.506Z,50.20
2023-02-12T04:13:11.492Z,49.00
2023-02-12T04:14:11.483Z,52.48
2023-02-12T04:15:11.476Z,46.81
2023-02-12T04:16:11.496Z,52.93
2023-02-12T04:17:11.458Z,50.09
2023-02-12T04:18:11.455Z,52.73
2023-02-12T04:19:11.449Z,50.11
2023-02-12T04:20:11.481Z,50.95
2023-02-12T04:21:11.441Z,50.11
2023-02-12T04:22:11.420Z,53.93
2023-02-12T04:23:11.415Z,49.02
2023-02-12T04:24:12.409Z,49.96
2023-02-12T04:25:11.421Z,53.66
2023-02-12T04:26:11.412Z,51.32
2023-02-12T04:27:11.401Z,52.17
2023-02-12T04:28:11.437Z,52.90
2023-02-12T04:29:11.377Z,49.63
2023-02-12T04:30:11.379Z,52.37
2023-02-12T04:31:11.570Z,50.03
2023-02-12T04:32:11.369Z,53.19
2023-02-12T04:33:11.370Z,50.75
2023-02-12T04:34:11.365Z,50.56
2023-02-12T04:35:11.344Z,48.30
2023-02-12T04:36:11.328Z,48.64
2023-02-12T04:37:11.349Z,48.84
2023-02-12T04:38:11.324Z,49.15
2023-02-12T04:39:11.332Z,46.80
2023-02-12T04:40:11.311Z,50.67
2023-02-12T04:41:11.296Z,53.12
2023-02-12T04:42:11.308Z,48.67
2023-02-12T04:43:11.290Z,51.19
2023-02-12T04:44:11.280Z,49.56
2023-02-12T04:45:11.272Z,51.48
2023-02-12T04:46:11.283Z,47.31
2023-02-12T04:47:11.252Z,53.50
2023-02-12T04:48:11.267Z,49.88
2023-02-12T04:49:11.244Z,52.19
2023-02-12T04:50:11.241Z,52.00
2023-02-12T04:51:11.229Z,49.04
2023-02-12T04:52:11.224Z,48.19
2023-02-12T04:53:11.245Z,50.29
2023-02-12T04:54:11.216Z,49.21
2023-02-12T04:55:11.208Z,48.77
2023-02-12T04:56:11.204Z,50.41
2023-02-12T04:57:11.208Z,50.42
2023-02-12T04:58:11.217Z,52.37
2023-02-12T04:59:11.181Z,50.89
2023-02-12T05:00:11.171Z,51.73
2023-02-12T05:01:11.230Z,53.07
2023-02-12T05:02:11.172Z,50.86
2023-02-12T05:03:11.136Z,52.65
2023-02-12T05:04:11.172Z,51.33
2023-02-12T05:05:11.251Z,54.96
2023-02-12T05:06:11.129Z,52.00
2023-02-12T05:07:11.124Z,49.57
2023-02-12T05:08:11.187Z,49.97
2023-02-12T05:09:12.124Z,52.33
2023-02-12T05:10:11.115Z,50.27
2023-02-12T05:11:11.122Z,50.46
2023-02-12T05:12:11.085Z,52.01
2023-02-12T05:13:11.085Z,49.83
2023-02-12T05:14:11.100Z,49.50
2023-02-12T05:15:11.063Z,48.22
2023-02-12T05:16:11.109Z,50.70
2023-02-12T05:17:11.051Z,49.28
2023-02-12T05:18:11.049Z,50.48
2023-02-12T05:19:11.059Z,51.20
2023-02-12T05:20:11.048Z,48.92
2023-02-12T05:21:11.040Z,48.80
2023-02-12T05:22:11.023Z,47.97
2023-02-12T05:23:11.000Z,50.88
2023-02-12T05:24:11.014Z,49.61
2023-02-12T05:25:11.006Z,50.73
2023-02-12T05:26:11.000Z,48.37
2023-02-12T05:27:10.975Z,50.34
2023-02-12T05:28:11.013Z,49.75
2023-02-12T05:29:10.972Z,49.26
2023-02-12T05:30:10.982Z,47.59
2023-02-12T05:31:11.115Z,50.83
2023-02-12T05:32:11.011Z,49.94
2023-02-12T05:33:10.950Z,50.49
2023-02-12T05:34:10.942Z,50.01
2023-02-12T05:35:10.944Z,50.80
2023-02-12T05:36:10.927Z,53.23
2023-02-12T05:37:10.934Z,50.68
2023-02-12T05:38:10.914Z,48.40
2023-02-12T05:39:10.900Z,52.47
2023-02-12T05:40:10.906Z,50.99
2023-02-12T05:41:10.902Z,48.98
2023-02-12T05:42:10.905Z,48.77
2023-02-12T05:43:10.877Z,51.85
2023-02-12T05:44:10.866Z,49.44
2023-02-12T05:45:10.862Z,48.83
2023-02-12T05:46:10.908Z,50.95
2023-02-12T05:47:10.849Z,50.86
2023-02-12T05:48:10.853Z,52.49
2023-02-12T05:49:10.828Z,50.05
2023-02-12T05:50:10.826Z,48.84
2023-02-12T05:51:10.816Z,50.34
2023-02-12T05:52:10.816Z,50.39
2023-02-12T05:53:10.821Z,51.04
2023-02-12T05:54:10.804Z,50.91
2023-02-12T05:55:10.784Z,54.40
2023-02-12T05:56:10.784Z,49.52
2023-02-12T05:57:10.774Z,50.02
2023-02-12T05:58:10.786Z,46.89
2023-02-12T05:59:10.761Z,46.67
2023-02-12T06:00:10.762Z,49.00
2023-02-12T06:01:10.748Z,55.12
2023-02-12T06:02:10.762Z,56.34
2023-02-12T06:03:10.751Z,56.34
2023-02-12T06:04:10.799Z,53.28
2023-02-12T06:05:10.727Z,54.60
2023-02-12T06:06:10.756Z,52.85
2023-02-12T06:07:10.710Z,49.74
2023-02-12T06:08:10.707Z,49.06
2023-02-12T06:09:10.701Z,51.77
2023-02-12T06:10:10.709Z,48.53
2023-02-12T06:11:10.726Z,50.66
2023-02-12T06:12:10.676Z,53.56
2023-02-12T06:13:10.675Z,50.25
2023-02-12T06:14:10.659Z,48.74
2023-02-12T06:15:10.656Z,51.72
2023-02-12T06:16:10.683Z,51.74
2023-02-12T06:17:10.649Z,51.32
2023-02-12T06:18:10.626Z,50.48
2023-02-12T06:19:10.619Z,52.30
2023-02-12T06:20:10.610Z,51.84
2023-02-12T06:21:10.623Z,52.49
2023-02-12T06:22:10.607Z,48.72
2023-02-12T06:23:10.596Z,48.16
2023-02-12T06:24:10.584Z,47.51
2023-02-12T06:25:10.578Z,49.25
2023-02-12T06:26:10.584Z,52.54
2023-02-12T06:27:10.596Z,50.20
2023-02-12T06:28:10.608Z,48.83
2023-02-12T06:29:10.562Z,50.94
2023-02-12T06:30:10.559Z,54.34
2023-02-12T06:31:10.596Z,52.54
2023-02-12T06:32:10.633Z,50.10
2023-02-12T06:33:10.538Z,51.43
2023-02-12T06:34:10.537Z,53.28
2023-02-12T06:35:10.524Z,50.00
2023-02-12T06:36:10.497Z,48.75
2023-02-12T06:37:11.514Z,49.84
2023-02-12T06:38:10.498Z,53.67
2023-02-12T06:39:10.482Z,53.84
2023-02-12T06:40:10.475Z,50.77
2023-02-12T06:41:10.466Z,52.81
2023-02-12T06:42:10.472Z,51.29
2023-02-12T06:43:10.464Z,55.34
2023-02-12T06:44:10.447Z,53.22
2023-02-12T06:45:10.438Z,53.44
2023-02-12T06:46:10.489Z,49.19
2023-02-12T06:47:10.424Z,50.14
2023-02-12T06:48:10.442Z,51.28
2023-02-12T06:49:10.421Z,50.66
2023-02-12T06:50:10.409Z,53.69
2023-02-12T06:51:10.405Z,53.20
2023-02-12T06:52:10.392Z,54.32
2023-02-12T06:53:10.404Z,52.93
2023-02-12T06:54:10.449Z,49.82
2023-02-12T06:55:10.381Z,53.45
2023-02-12T06:56:10.373Z,52.96
2023-02-12T06:57:10.364Z,53.88
2023-02-12T06:58:10.352Z,53.62
2023-02-12T06:59:10.361Z,51.02
2023-02-12T07:00:11.344Z,52.10
2023-02-12T07:01:10.429Z,48.40
2023-02-12T07:02:10.332Z,52.37
2023-02-12T07:03:10.352Z,49.32
2023-02-12T07:04:10.364Z,50.56
2023-02-12T07:05:10.325Z,52.97
2023-02-12T07:06:10.291Z,56.08
2023-02-12T07:07:10.284Z,51.90
2023-02-12T07:08:10.276Z,48.41
2023-02-12T07:09:10.289Z,48.83
2023-02-12T07:10:10.293Z,49.95
2023-02-12T07:11:10.268Z,51.13
2023-02-12T07:12:10.268Z,52.80
2023-02-12T07:13:10.247Z,51.92
2023-02-12T07:14:10.243Z,50.13
2023-02-12T07:15:10.244Z,51.44
2023-02-12T07:16:10.350Z,52.57
2023-02-12T07:17:10.225Z,52.19
2023-02-12T07:18:10.212Z,51.84
2023-02-12T07:19:10.203Z,50.61
2023-02-12T07:20:10.211Z,52.90
2023-02-12T07:21:10.233Z,49.90
2023-02-12T07:22:10.178Z,51.78
2023-02-12T07:23:10.181Z,51.79
2023-02-12T07:24:10.195Z,52.90
2023-02-12T07:25:10.167Z,51.02
2023-02-12T07:26:10.178Z,51.05
2023-02-12T07:27:10.150Z,49.34
2023-02-12T07:28:10.174Z,50.30
2023-02-12T07:29:10.136Z,49.94
2023-02-12T07:30:10.141Z,47.32
2023-02-12T07:31:10.358Z,54.69
2023-02-12T07:32:10.204Z,51.61
2023-02-12T07:33:10.124Z,52.63
2023-02-12T07:34:10.098Z,53.13
2023-02-12T07:35:10.113Z,51.55
2023-02-12T07:36:10.084Z,50.50
2023-02-12T07:37:10.102Z,51.78
2023-02-12T07:38:10.088Z,53.87
2023-02-12T07:39:10.056Z,55.18
2023-02-12T07:40:10.053Z,52.95
2023-02-12T07:41:10.854Z,52.99
2023-02-12T07:42:11.049Z,54.21
2023-02-12T07:43:10.033Z,51.57
2023-02-12T07:44:10.043Z,49.85
2023-02-12T07:45:10.027Z,50.97
2023-02-12T07:46:10.064Z,53.92
2023-02-12T07:47:10.018Z,53.30
2023-02-12T07:48:10.005Z,53.54
2023-02-12T07:49:09.993Z,51.38
2023-02-12T07:50:09.978Z,52.53
2023-02-12T07:51:10.014Z,55.53
2023-02-12T07:52:12.946Z,52.45
2023-02-12T07:53:09.951Z,55.09
2023-02-12T07:54:09.968Z,52.34
2023-02-12T07:55:09.961Z,51.68
2023-02-12T07:56:09.935Z,51.01
2023-02-12T07:57:09.933Z,50.37
2023-02-12T07:58:09.930Z,53.07
2023-02-12T07:59:09.924Z,51.62
2023-02-12T08:00:09.918Z,52.83
2023-02-12T08:01:09.905Z,52.46
2023-02-12T08:02:09.935Z,52.27
2023-02-12T08:03:09.893Z,54.23
2023-02-12T08:04:10.010Z,54.22
2023-02-12T08:05:09.876Z,53.75
2023-02-12T08:06:09.866Z,54.35
2023-02-12T08:07:09.916Z,53.73
2023-02-12T08:08:09.848Z,54.32
2023-02-12T08:09:09.877Z,54.93
2023-02-12T08:10:09.849Z,55.50
2023-02-12T08:11:09.873Z,52.72
2023-02-12T08:12:09.821Z,51.64
2023-02-12T08:13:09.821Z,51.16
2023-02-12T08:14:09.813Z,51.61
2023-02-12T08:15:09.817Z,52.49
2023-02-12T08:16:09.827Z,54.02
2023-02-12T08:17:09.780Z,54.24
2023-02-12T08:18:09.774Z,54.55
2023-02-12T08:19:17.911Z,53.72
2023-02-12T08:20:11.769Z,54.20
2023-02-12T08:21:09.764Z,54.81
2023-02-12T08:22:09.754Z,54.60
2023-02-12T08:23:09.739Z,54.96
2023-02-12T08:24:09.739Z,53.43
2023-02-12T08:25:09.753Z,53.06
2023-02-12T08:26:09.738Z,53.36
2023-02-12T08:27:09.725Z,54.08
2023-02-12T08:28:09.751Z,53.69
2023-02-12T08:29:09.698Z,52.92
2023-02-12T08:30:09.713Z,51.61
2023-02-12T08:31:09.785Z,52.20
2023-02-12T08:32:09.768Z,52.71
2023-02-12T08:33:09.669Z,54.08
2023-02-12T08:34:09.657Z,54.87
2023-02-12T08:35:09.660Z,54.31
2023-02-12T08:36:09.659Z,54.03
2023-02-12T08:37:09.638Z,55.75
2023-02-12T08:38:09.640Z,53.02
2023-02-12T08:39:09.621Z,53.72
2023-02-12T08:40:09.623Z,53.12
2023-02-12T08:41:09.701Z,53.20
2023-02-12T08:42:09.589Z,54.81
2023-02-12T08:43:09.598Z,53.48
2023-02-12T08:44:09.581Z,54.96
2023-02-12T08:45:09.600Z,55.89
2023-02-12T08:46:09.732Z,56.55
2023-02-12T08:47:09.578Z,56.20
2023-02-12T08:48:09.556Z,52.74
2023-02-12T08:49:09.551Z,56.47
2023-02-12T08:50:09.554Z,56.40
2023-02-12T08:51:09.535Z,54.61
2023-02-12T08:52:09.534Z,58.47
2023-02-12T08:53:09.525Z,63.50
2023-02-12T08:54:09.512Z,64.05
2023-02-12T08:55:09.517Z,64.18
2023-02-12T08:56:09.505Z,63.11
2023-02-12T08:57:09.514Z,63.73
2023-02-12T08:58:09.490Z,61.76
2023-02-12T08:59:09.476Z,62.56
2023-02-12T09:00:09.467Z,58.79
2023-02-12T09:01:09.476Z,53.88
2023-02-12T09:02:09.564Z,55.17
2023-02-12T09:03:09.470Z,54.39
2023-02-12T09:04:09.441Z,56.42
2023-02-12T09:05:09.458Z,52.33
2023-02-12T09:06:09.426Z,54.79
2023-02-12T09:07:10.941Z,55.20
2023-02-12T09:08:10.405Z,56.70
2023-02-12T09:09:09.448Z,55.77
2023-02-12T09:10:09.396Z,53.84
2023-02-12T09:11:09.411Z,54.27
2023-02-12T09:12:09.388Z,52.39
2023-02-12T09:13:09.373Z,54.62
2023-02-12T09:14:09.373Z,54.27
2023-02-12T09:15:09.353Z,56.97
2023-02-12T09:16:09.360Z,52.95
2023-02-12T09:17:09.567Z,54.49
2023-02-12T09:18:09.338Z,54.38
2023-02-12T09:19:09.329Z,54.62
2023-02-12T09:20:09.319Z,53.01
2023-02-12T09:21:09.349Z,56.32
2023-02-12T09:22:09.344Z,55.24
2023-02-12T09:23:09.302Z,55.89
2023-02-12T09:24:09.298Z,57.65
2023-02-12T09:25:09.297Z,55.06
2023-02-12T09:26:09.285Z,55.48
2023-02-12T09:27:09.276Z,55.00
2023-02-12T09:28:09.311Z,54.99
2023-02-12T09:29:09.265Z,56.34
2023-02-12T09:30:09.265Z,54.80
2023-02-12T09:31:09.381Z,55.87
2023-02-12T09:32:09.294Z,56.12
2023-02-12T09:33:09.244Z,56.04
2023-02-12T09:34:09.222Z,58.04
2023-02-12T09:35:09.216Z,57.24
2023-02-12T09:36:09.220Z,55.27
2023-02-12T09:37:09.203Z,54.89
2023-02-12T09:38:09.213Z,56.01
2023-02-12T09:39:09.189Z,55.59
2023-02-12T09:40:09.196Z,55.18
2023-02-12T09:41:09.172Z,54.77
2023-02-12T09:42:09.233Z,55.75
2023-02-12T09:43:09.187Z,56.39
2023-02-12T09:44:09.150Z,54.88
2023-02-12T09:45:09.146Z,55.30
2023-02-12T09:46:09.172Z,56.89
2023-02-12T09:47:09.134Z,56.34
2023-02-12T09:48:09.120Z,56.33
2023-02-12T09:49:09.136Z,54.23
2023-02-12T09:50:09.112Z,57.52
2023-02-12T09:51:09.099Z,56.17
2023-02-12T09:52:09.096Z,55.59
2023-02-12T09:53:09.109Z,55.46
2023-02-12T09:54:09.086Z,55.50
2023-02-12T09:55:09.080Z,54.26
2023-02-12T09:56:09.074Z,53.44
2023-02-12T09:57:09.058Z,55.07
2023-02-12T09:58:09.072Z,54.77
2023-02-12T09:59:09.252Z,54.31
2023-02-12T10:00:09.049Z,54.54
2023-02-12T10:01:09.065Z,53.73
2023-02-12T10:02:09.033Z,52.63
2023-02-12T10:03:09.024Z,53.33
2023-02-12T10:04:09.153Z,54.32
2023-02-12T10:05:09.065Z,53.79
2023-02-12T10:06:09.008Z,52.55
2023-02-12T10:07:09.009Z,53.78
2023-02-12T10:08:08.998Z,54.32
2023-02-12T10:09:09.010Z,52.78
2023-02-12T10:10:09.000Z,54.53
2023-02-12T10:11:09.016Z,53.40
2023-02-12T10:12:08.982Z,51.91
2023-02-12T10:13:08.972Z,53.57
2023-02-12T10:14:08.965Z,51.79
2023-02-12T10:15:08.977Z,52.84
2023-02-12T10:16:08.950Z,54.31
2023-02-12T10:17:09.779Z,55.13
2023-02-12T10:18:08.927Z,54.04
2023-02-12T10:19:08.959Z,54.60
2023-02-12T10:20:08.942Z,54.31
2023-02-12T10:21:08.944Z,54.25
2023-02-12T10:22:08.906Z,53.89
2023-02-12T10:23:08.944Z,52.38
2023-02-12T10:24:08.928Z,55.05
2023-02-12T10:25:08.932Z,55.53
2023-02-12T10:26:08.890Z,54.47
2023-02-12T10:27:08.911Z,54.81
2023-02-12T10:28:08.883Z,55.64
2023-02-12T10:29:08.866Z,54.22
2023-02-12T10:30:08.860Z,55.30
2023-02-12T10:31:08.998Z,53.79
2023-02-12T10:32:08.846Z,53.65
2023-02-12T10:33:08.835Z,55.35
2023-02-12T10:34:08.822Z,53.64
2023-02-12T10:35:08.803Z,54.43
2023-02-12T10:36:08.812Z,57.83
2023-02-12T10:37:08.798Z,55.57
2023-02-12T10:38:08.820Z,56.10
2023-02-12T10:39:08.784Z,55.99
2023-02-12T10:40:08.783Z,55.27
2023-02-12T10:41:08.784Z,53.60
2023-02-12T10:42:08.761Z,53.77
2023-02-12T10:43:10.572Z,52.53
2023-02-12T10:44:09.798Z,54.02
2023-02-12T10:45:08.748Z,55.33
2023-02-12T10:46:08.750Z,55.22
2023-02-12T10:47:08.764Z,56.22
2023-02-12T10:48:08.738Z,55.18
2023-02-12T10:49:08.724Z,54.53
2023-02-12T10:50:08.708Z,52.88
2023-02-12T10:51:08.708Z,54.07
2023-02-12T10:52:08.683Z,55.27
2023-02-12T10:53:08.719Z,54.89
2023-02-12T10:54:08.687Z,55.47
2023-02-12T10:55:08.715Z,54.49
2023-02-12T10:56:08.679Z,55.10
2023-02-12T10:57:08.664Z,55.79
2023-02-12T10:58:08.647Z,54.92
2023-02-12T10:59:08.678Z,55.83
2023-02-12T11:00:08.647Z,57.10
2023-02-12T11:01:08.638Z,56.74
2023-02-12T11:02:08.632Z,56.06
2023-02-12T11:03:08.614Z,57.61
2023-02-12T11:04:08.628Z,55.96
2023-02-12T11:05:08.625Z,53.84
2023-02-12T11:06:08.599Z,57.60
2023-02-12T11:07:08.610Z,55.56
2023-02-12T11:08:08.605Z,54.85
2023-02-12T11:09:08.576Z,54.45
2023-02-12T11:10:08.575Z,53.78
2023-02-12T11:11:08.562Z,54.77
2023-02-12T11:12:08.575Z,54.05
2023-02-12T11:13:08.543Z,55.80
2023-02-12T11:14:08.538Z,53.25
2023-02-12T11:15:08.571Z,54.87
2023-02-12T11:16:08.615Z,53.03
2023-02-12T11:17:08.518Z,54.33
2023-02-12T11:18:08.548Z,54.56
2023-02-12T11:19:08.523Z,54.74
2023-02-12T11:20:08.536Z,55.06
2023-02-12T11:21:08.498Z,54.20
2023-02-12T11:22:08.497Z,54.68
2023-02-12T11:23:08.482Z,54.74
2023-02-12T11:24:08.510Z,53.85
2023-02-12T11:25:08.487Z,53.89
2023-02-12T11:26:08.483Z,51.51
2023-02-12T11:27:08.485Z,55.55
2023-02-12T11:28:08.555Z,55.70
2023-02-12T11:29:08.527Z,53.60
2023-02-12T11:30:08.439Z,55.00
2023-02-12T11:31:08.576Z,54.75
2023-02-12T11:32:08.489Z,55.45
2023-02-12T11:33:08.417Z,58.85
2023-02-12T11:34:08.415Z,56.36
2023-02-12T11:35:08.410Z,54.70
2023-02-12T11:36:08.802Z,54.33
2023-02-12T11:37:08.395Z,54.07
2023-02-12T11:38:08.467Z,54.76
2023-02-12T11:39:08.405Z,54.50
2023-02-12T11:40:08.382Z,56.34
2023-02-12T11:41:08.374Z,55.80
2023-02-12T11:42:08.356Z,53.94
2023-02-12T11:43:08.355Z,53.09
2023-02-12T11:44:08.357Z,54.74
2023-02-12T11:45:08.349Z,54.23
2023-02-12T11:46:08.691Z,54.99
2023-02-12T11:47:08.334Z,55.57
2023-02-12T11:48:08.326Z,56.18
2023-02-12T11:49:08.306Z,53.66
2023-02-12T11:50:08.306Z,55.41
2023-02-12T11:51:08.323Z,53.10
2023-02-12T11:52:08.305Z,55.02
2023-02-12T11:53:08.311Z,55.20
2023-02-12T11:54:08.291Z,53.98
2023-02-12T11:55:08.272Z,58.64
2023-02-12T11:56:08.294Z,55.42
2023-02-12T11:57:08.353Z,54.77
2023-02-12T11:58:08.289Z,54.93
2023-02-12T11:59:08.277Z,55.95
2023-02-12T12:00:08.253Z,56.80
2023-02-12T12:01:08.237Z,56.40
2023-02-12T12:02:08.244Z,55.84
2023-02-12T12:03:08.307Z,55.13
2023-02-12T12:04:08.247Z,54.80
2023-02-12T12:05:08.211Z,54.11
2023-02-12T12:06:08.202Z,55.23
2023-02-12T12:07:09.194Z,56.15
2023-02-12T12:08:08.198Z,56.40
2023-02-12T12:09:08.186Z,56.46
2023-02-12T12:10:08.174Z,53.84
2023-02-12T12:11:08.205Z,54.89
2023-02-12T12:12:08.214Z,54.93
2023-02-12T12:13:08.302Z,54.14
2023-02-12T12:14:08.152Z,54.44
2023-02-12T12:15:08.128Z,55.45
2023-02-12T12:16:08.303Z,54.89
2023-02-12T12:17:08.124Z,54.36
2023-02-12T12:18:08.131Z,55.86
2023-02-12T12:19:08.207Z,56.19
2023-02-12T12:20:08.150Z,55.63
2023-02-12T12:21:08.093Z,54.95
2023-02-12T12:22:08.150Z,55.23
2023-02-12T12:23:08.192Z,53.62
2023-02-12T12:24:08.161Z,52.98
2023-02-12T12:25:08.070Z,52.16
2023-02-12T12:26:08.069Z,54.20
2023-02-12T12:27:08.053Z,54.52
2023-02-12T12:28:08.080Z,53.60
2023-02-12T12:29:08.053Z,53.67
2023-02-12T12:30:10.271Z,53.17
2023-02-12T12:31:08.120Z,54.60
2023-02-12T12:32:08.035Z,54.37
2023-02-12T12:33:08.028Z,53.13
2023-02-12T12:34:08.040Z,52.78
2023-02-12T12:35:08.004Z,52.58
2023-02-12T12:36:08.015Z,52.68
2023-02-12T12:37:07.997Z,53.37
2023-02-12T12:38:07.981Z,53.76
2023-02-12T12:39:07.970Z,53.60
2023-02-12T12:40:07.987Z,53.88
2023-02-12T12:41:07.967Z,53.65
2023-02-12T12:42:07.954Z,53.71
2023-02-12T12:43:07.952Z,52.60
2023-02-12T12:44:07.967Z,51.67
2023-02-12T12:45:07.949Z,54.27
2023-02-12T12:46:08.030Z,52.99
2023-02-12T12:47:07.929Z,54.29
2023-02-12T12:48:07.974Z,52.66
2023-02-12T12:49:08.000Z,52.13
2023-02-12T12:50:07.928Z,51.19
2023-02-12T12:51:07.915Z,53.07
2023-02-12T12:52:07.908Z,52.56